createdAt,value
2023-05-05T00:00:02.558Z,1021
2023-05-05T00:01:02.798Z,1020.9
2023-05-05T00:03:02.647Z,1020.9
2023-05-05T00:04:02.579Z,1020.9
2023-05-05T00:05:02.405Z,1020.9
2023-05-05T00:06:02.486Z,1020.9
2023-05-05T00:07:02.492Z,1020.9
2023-05-05T00:08:02.434Z,1020.9
2023-05-05T00:09:02.418Z,1020.9
2023-05-05T00:10:02.497Z,1020.9
2023-05-05T00:11:02.429Z,1020.9
2023-05-05T00:12:02.296Z,1020.9
2023-05-05T00:13:02.438Z,1020.9
2023-05-05T00:14:02.260Z,1020.9
2023-05-05T00:15:02.130Z,1020.8
2023-05-05T00:16:02.214Z,1020.8
2023-05-05T00:17:01.984Z,1020.8
2023-05-05T00:18:02.399Z,1020.8
2023-05-05T00:19:02.202Z,1020.8
2023-05-05T00:20:01.980Z,1020.8
2023-05-05T00:21:02.073Z,1020.8
2023-05-05T00:22:01.934Z,1020.8
2023-05-05T00:23:01.910Z,1020.7
2023-05-05T00:24:01.803Z,1020.7
2023-05-05T00:25:01.763Z,1020.8
2023-05-05T00:26:01.657Z,1020.7
2023-05-05T00:27:01.796Z,1020.7
2023-05-05T00:28:01.597Z,1020.7
2023-05-05T00:29:02.731Z,1020.7
2023-05-05T00:30:02.639Z,1020.7
2023-05-05T00:31:02.863Z,1020.7
2023-05-05T00:33:03.019Z,1020.7
2023-05-05T00:34:01.658Z,1020.7
2023-05-05T00:35:01.710Z,1020.6
2023-05-05T00:36:02.678Z,1020.6
2023-05-05T00:37:02.623Z,1020.7
2023-05-05T00:38:02.687Z,1020.6
2023-05-05T00:39:02.596Z,1020.7
2023-05-05T00:40:02.693Z,1020.6
2023-05-05T00:41:02.520Z,1020.6
2023-05-05T00:42:02.584Z,1020.6
2023-05-05T00:43:02.458Z,1020.6
2023-05-05T00:44:02.582Z,1020.6
2023-05-05T00:45:02.415Z,1020.7
2023-05-05T00:46:02.723Z,1020.7
2023-05-05T00:48:02.788Z,1020.6
2023-05-05T00:49:02.664Z,1020.7
2023-05-05T00:50:02.672Z,1020.7
2023-05-05T00:51:02.589Z,1020.6
2023-05-05T00:52:02.674Z,1020.6
2023-05-05T00:53:01.636Z,1020.6
2023-05-05T00:54:02.655Z,1020.7
2023-05-05T00:55:02.578Z,1020.7
2023-05-05T00:56:02.645Z,1020.7
2023-05-05T00:57:02.538Z,1020.7
2023-05-05T00:58:02.656Z,1020.7
2023-05-05T00:59:02.511Z,1020.7
2023-05-05T01:00:02.762Z,1020.7
2023-05-05T01:01:02.647Z,1020.7
2023-05-05T01:03:02.564Z,1020.6
2023-05-05T01:04:02.548Z,1020.7
2023-05-05T01:05:02.245Z,1020.7
2023-05-05T01:06:02.333Z,1020.6
2023-05-05T01:07:02.309Z,1020.6
2023-05-05T01:08:02.166Z,1020.7
2023-05-05T01:09:02.308Z,1020.6
2023-05-05T01:10:21.153Z,1020.6
2023-05-05T01:11:01.824Z,1020.6
2023-05-05T01:12:01.912Z,1020.6
2023-05-05T01:13:01.912Z,1020.6
2023-05-05T01:14:01.804Z,1020.6
2023-05-05T01:15:01.682Z,1020.5
2023-05-05T01:16:01.953Z,1020.6
2023-05-05T01:17:02.505Z,1020.6
2023-05-05T01:18:02.537Z,1020.6
2023-05-05T01:19:02.460Z,1020.6
2023-05-05T01:20:02.381Z,1020.5
2023-05-05T01:21:02.247Z,1020.5
2023-05-05T01:22:02.445Z,1020.5
2023-05-05T01:23:02.362Z,1020.5
2023-05-05T01:24:02.268Z,1020.5
2023-05-05T01:25:02.319Z,1020.6
2023-05-05T01:26:02.314Z,1020.5
2023-05-05T01:27:02.164Z,1020.5
2023-05-05T01:28:02.334Z,1020.5
2023-05-05T01:29:02.371Z,1020.6
2023-05-05T01:30:02.232Z,1020.5
2023-05-05T01:31:02.274Z,1020.6
2023-05-05T01:32:02.488Z,1020.5
2023-05-05T01:33:02.171Z,1020.5
2023-05-05T01:34:02.199Z,1020.5
2023-05-05T01:35:02.210Z,1020.5
2023-05-05T01:36:02.063Z,1020.4
2023-05-05T01:37:02.118Z,1020.5
2023-05-05T01:38:01.971Z,1020.5
2023-05-05T01:39:02.058Z,1020.5
2023-05-05T01:40:01.854Z,1020.5
2023-05-05T01:41:01.931Z,1020.5
2023-05-05T01:42:01.764Z,1020.5
2023-05-05T01:43:01.837Z,1020.5
2023-05-05T01:44:01.701Z,1020.5
2023-05-05T01:45:01.784Z,1020.4
2023-05-05T01:46:01.765Z,1020.4
2023-05-05T01:47:01.846Z,1020.4
2023-05-05T01:48:01.959Z,1020.4
2023-05-05T01:49:01.836Z,1020.5
2023-05-05T01:50:01.860Z,1020.5
2023-05-05T01:51:01.608Z,1020.5
2023-05-05T01:52:01.698Z,1020.4
2023-05-05T01:53:02.663Z,1020.4
2023-05-05T01:54:02.545Z,1020.5
2023-05-05T01:55:02.556Z,1020.4
2023-05-05T01:56:02.493Z,1020.5
2023-05-05T01:57:02.556Z,1020.4
2023-05-05T01:58:02.420Z,1020.5
2023-05-05T01:59:02.507Z,1020.5
2023-05-05T02:00:02.432Z,1020.5
2023-05-05T02:01:02.284Z,1020.5
2023-05-05T02:02:02.456Z,1020.6
2023-05-05T02:03:02.674Z,1020.6
2023-05-05T02:04:02.429Z,1020.5
2023-05-05T02:05:02.537Z,1020.5
2023-05-05T02:06:02.416Z,1020.5
2023-05-05T02:07:02.497Z,1020.6
2023-05-05T02:08:02.404Z,1020.5
2023-05-05T02:09:02.260Z,1020.5
2023-05-05T02:10:02.279Z,1020.5
2023-05-05T02:11:02.259Z,1020.4
2023-05-05T02:12:02.074Z,1020.5
2023-05-05T02:13:02.243Z,1020.5
2023-05-05T02:14:02.077Z,1020.5
2023-05-05T02:15:02.083Z,1020.5
2023-05-05T02:16:02.000Z,1020.5
2023-05-05T02:17:02.076Z,1020.4
2023-05-05T02:18:02.437Z,1020.4
2023-05-05T02:19:02.183Z,1020.4
2023-05-05T02:20:02.097Z,1020.4
2023-05-05T02:21:02.053Z,1020.4
2023-05-05T02:22:02.041Z,1020.3
2023-05-05T02:23:01.893Z,1020.4
2023-05-05T02:24:01.875Z,1020.4
2023-05-05T02:25:01.943Z,1020.4
2023-05-05T02:26:01.813Z,1020.4
2023-05-05T02:27:01.827Z,1020.4
2023-05-05T02:28:01.719Z,1020.4
2023-05-05T02:29:01.732Z,1020.4
2023-05-05T02:30:02.823Z,1020.4
2023-05-05T02:31:02.618Z,1020.4
2023-05-05T02:33:01.919Z,1020.3
2023-05-05T02:34:02.650Z,1020.4
2023-05-05T02:35:02.544Z,1020.3
2023-05-05T02:36:02.609Z,1020.4
2023-05-05T02:37:02.479Z,1020.4
2023-05-05T02:38:02.751Z,1020.4
2023-05-05T02:39:02.468Z,1020.4
2023-05-05T02:40:02.512Z,1020.5
2023-05-05T02:41:02.381Z,1020.5
2023-05-05T02:42:02.372Z,1020.5
2023-05-05T02:43:02.437Z,1020.5
2023-05-05T02:44:02.255Z,1020.5
2023-05-05T02:45:02.271Z,1020.5
2023-05-05T02:46:02.548Z,1020.5
2023-05-05T02:47:02.261Z,1020.5
2023-05-05T02:48:02.497Z,1020.5
2023-05-05T02:49:02.279Z,1020.5
2023-05-05T02:50:02.084Z,1020.4
2023-05-05T02:51:02.143Z,1020.4
2023-05-05T02:52:01.976Z,1020.4
2023-05-05T02:53:02.047Z,1020.4
2023-05-05T02:54:01.931Z,1020.4
2023-05-05T02:55:02.003Z,1020.4
2023-05-05T02:56:01.807Z,1020.4
2023-05-05T02:57:01.878Z,1020.4
2023-05-05T02:58:01.712Z,1020.4
2023-05-05T02:59:01.765Z,1020.4
2023-05-05T03:00:01.680Z,1020.4
2023-05-05T03:01:01.785Z,1020.3
2023-05-05T03:02:01.655Z,1020.3
2023-05-05T03:03:02.915Z,1020.3
2023-05-05T03:04:02.629Z,1020.3
2023-05-05T03:05:02.749Z,1020.3
2023-05-05T03:06:02.582Z,1020.3
2023-05-05T03:07:02.552Z,1020.3
2023-05-05T03:08:02.511Z,1020.4
2023-05-05T03:09:02.573Z,1020.4
2023-05-05T03:10:02.446Z,1020.4
2023-05-05T03:11:02.465Z,1020.4
2023-05-05T03:12:02.407Z,1020.4
2023-05-05T03:13:02.537Z,1020.4
2023-05-05T03:14:02.369Z,1020.4
2023-05-05T03:15:02.312Z,1020.4
2023-05-05T03:16:02.411Z,1020.4
2023-05-05T03:17:02.387Z,1020.5
2023-05-05T03:18:02.375Z,1020.5
2023-05-05T03:19:02.334Z,1020.4
2023-05-05T03:20:04.378Z,1020.5
2023-05-05T03:21:01.986Z,1020.5
2023-05-05T03:22:02.170Z,1020.4
2023-05-05T03:23:01.907Z,1020.5
2023-05-05T03:24:02.007Z,1020.4
2023-05-05T03:25:01.850Z,1020.5
2023-05-05T03:26:01.863Z,1020.5
2023-05-05T03:27:01.725Z,1020.5
2023-05-05T03:28:01.758Z,1020.5
2023-05-05T03:29:01.584Z,1020.5
2023-05-05T03:30:02.615Z,1020.5
2023-05-05T03:31:02.552Z,1020.5
2023-05-05T03:32:02.488Z,1020.5
2023-05-05T03:33:02.712Z,1020.5
2023-05-05T03:34:02.410Z,1020.5
2023-05-05T03:35:02.399Z,1020.5
2023-05-05T03:36:02.370Z,1020.5
2023-05-05T03:37:02.265Z,1020.5
2023-05-05T03:38:02.277Z,1020.5
2023-05-05T03:39:02.213Z,1020.4
2023-05-05T03:40:02.086Z,1020.4
2023-05-05T03:41:02.130Z,1020.4
2023-05-05T03:42:02.002Z,1020.4
2023-05-05T03:43:02.049Z,1020.4
2023-05-05T03:44:01.921Z,1020.3
2023-05-05T03:45:01.946Z,1020.4
2023-05-05T03:46:01.927Z,1020.3
2023-05-05T03:47:01.937Z,1020.3
2023-05-05T03:48:02.301Z,1020.4
2023-05-05T03:49:01.985Z,1020.3
2023-05-05T03:50:02.111Z,1020.3
2023-05-05T03:51:01.858Z,1020.3
2023-05-05T03:52:01.946Z,1020.3
2023-05-05T03:53:01.729Z,1020.3
2023-05-05T03:54:01.841Z,1020.3
2023-05-05T03:55:02.455Z,1020.3
2023-05-05T03:56:02.315Z,1020.3
2023-05-05T03:57:02.321Z,1020.4
2023-05-05T03:58:02.340Z,1020.3
2023-05-05T03:59:02.187Z,1020.4
2023-05-05T04:00:02.589Z,1020.4
2023-05-05T04:01:02.331Z,1020.4
2023-05-05T04:02:02.245Z,1020.3
2023-05-05T04:03:02.573Z,1020.3
2023-05-05T04:04:02.453Z,1020.4
2023-05-05T04:05:02.367Z,1020.4
2023-05-05T04:06:02.220Z,1020.5
2023-05-05T04:07:02.258Z,1020.5
2023-05-05T04:08:02.102Z,1020.5
2023-05-05T04:09:02.112Z,1020.5
2023-05-05T04:10:02.026Z,1020.5
2023-05-05T04:11:02.192Z,1020.5
2023-05-05T04:12:01.945Z,1020.5
2023-05-05T04:13:02.184Z,1020.5
2023-05-05T04:14:01.815Z,1020.5
2023-05-05T04:15:01.859Z,1020.5
2023-05-05T04:16:01.913Z,1020.5
2023-05-05T04:17:01.711Z,1020.6
2023-05-05T04:18:01.937Z,1020.5
2023-05-05T04:19:01.641Z,1020.6
2023-05-05T04:20:02.646Z,1020.5
2023-05-05T04:21:02.558Z,1020.5
2023-05-05T04:22:02.654Z,1020.5
2023-05-05T04:23:02.500Z,1020.5
2023-05-05T04:24:02.669Z,1020.5
2023-05-05T04:25:02.607Z,1020.4
2023-05-05T04:26:02.625Z,1020.5
2023-05-05T04:27:02.548Z,1020.6
2023-05-05T04:28:02.636Z,1020.5
2023-05-05T04:29:02.520Z,1020.5
2023-05-05T04:30:02.575Z,1020.5
2023-05-05T04:31:02.670Z,1020.5
2023-05-05T04:32:02.468Z,1020.6
2023-05-05T04:33:02.618Z,1020.6
2023-05-05T04:34:02.452Z,1020.6
2023-05-05T04:35:02.468Z,1020.6
2023-05-05T04:36:02.424Z,1020.6
2023-05-05T04:37:02.292Z,1020.6
2023-05-05T04:38:02.351Z,1020.5
2023-05-05T04:39:02.350Z,1020.6
2023-05-05T04:40:02.095Z,1020.6
2023-05-05T04:41:02.144Z,1020.6
2023-05-05T04:42:01.995Z,1020.6
2023-05-05T04:43:02.101Z,1020.6
2023-05-05T04:44:01.936Z,1020.6
2023-05-05T04:45:02.013Z,1020.7
2023-05-05T04:46:01.909Z,1020.6
2023-05-05T04:47:02.188Z,1020.6
2023-05-05T04:48:02.344Z,1020.7
2023-05-05T04:49:02.006Z,1020.7
2023-05-05T04:50:02.086Z,1020.6
2023-05-05T04:51:02.016Z,1020.6
2023-05-05T04:52:01.862Z,1020.7
2023-05-05T04:53:01.804Z,1020.7
2023-05-05T04:54:01.879Z,1020.8
2023-05-05T04:55:01.852Z,1020.8
2023-05-05T04:56:01.856Z,1020.8
2023-05-05T04:57:01.692Z,1020.8
2023-05-05T04:58:01.703Z,1020.8
2023-05-05T04:59:01.639Z,1020.9
2023-05-05T05:00:02.655Z,1020.8
2023-05-05T05:01:02.494Z,1020.9
2023-05-05T05:03:02.326Z,1020.9
2023-05-05T05:04:02.288Z,1020.9
2023-05-05T05:05:02.044Z,1020.9
2023-05-05T05:06:02.021Z,1020.8
2023-05-05T05:07:01.930Z,1020.9
2023-05-05T05:08:01.990Z,1020.9
2023-05-05T05:09:01.947Z,1020.9
2023-05-05T05:10:01.840Z,1020.9
2023-05-05T05:11:01.732Z,1020.9
2023-05-05T05:12:01.795Z,1020.8
2023-05-05T05:13:01.725Z,1020.9
2023-05-05T05:14:02.744Z,1020.8
2023-05-05T05:15:02.585Z,1020.8
2023-05-05T05:16:02.732Z,1021
2023-05-05T05:18:01.890Z,1020.9
2023-05-05T05:19:02.699Z,1020.9
2023-05-05T05:20:02.627Z,1021
2023-05-05T05:21:02.677Z,1021
2023-05-05T05:22:02.547Z,1020.9
2023-05-05T05:23:02.587Z,1021
2023-05-05T05:24:02.449Z,1020.9
2023-05-05T05:25:02.502Z,1021
2023-05-05T05:26:02.629Z,1021
2023-05-05T05:27:02.463Z,1021
2023-05-05T05:28:11.372Z,1021.1
2023-05-05T05:29:02.000Z,1021
2023-05-05T05:30:02.025Z,1021.1
2023-05-05T05:31:01.926Z,1021.1
2023-05-05T05:32:02.248Z,1021.1
2023-05-05T05:33:02.201Z,1021.1
2023-05-05T05:34:01.920Z,1021.1
2023-05-05T05:35:01.979Z,1021.1
2023-05-05T05:36:01.823Z,1021.1
2023-05-05T05:37:01.922Z,1021.1
2023-05-05T05:38:01.667Z,1021.1
2023-05-05T05:39:01.673Z,1021.2
2023-05-05T05:40:02.644Z,1021.2
2023-05-05T05:41:01.573Z,1021.1
2023-05-05T05:42:02.671Z,1021.2
2023-05-05T05:43:02.531Z,1021.2
2023-05-05T05:44:02.563Z,1021.2
2023-05-05T05:45:02.532Z,1021.1
2023-05-05T05:46:02.609Z,1021.2
2023-05-05T05:48:02.320Z,1021.2
2023-05-05T05:49:02.214Z,1021.2
2023-05-05T05:50:02.179Z,1021.2
2023-05-05T05:51:02.160Z,1021.2
2023-05-05T05:52:02.002Z,1021.2
2023-05-05T05:53:02.162Z,1021.2
2023-05-05T05:54:02.907Z,1021.2
2023-05-05T05:55:01.752Z,1021.2
2023-05-05T05:56:01.789Z,1021.3
2023-05-05T05:57:01.601Z,1021.2
2023-05-05T05:58:01.696Z,1021.2
2023-05-05T05:59:01.697Z,1021.2
2023-05-05T06:00:02.837Z,1021.2
2023-05-05T06:01:02.560Z,1021.3
2023-05-05T06:03:03.273Z,1021.2
2023-05-05T06:04:02.275Z,1021.2
2023-05-05T06:05:02.112Z,1021.1
2023-05-05T06:06:02.002Z,1021.2
2023-05-05T06:07:02.060Z,1021.1
2023-05-05T06:08:01.963Z,1021.1
2023-05-05T06:09:01.997Z,1021.2
2023-05-05T06:10:28.446Z,1021.2
2023-05-05T06:11:02.280Z,1021.2
2023-05-05T06:12:02.325Z,1021.1
2023-05-05T06:13:02.406Z,1021.2
2023-05-05T06:14:02.139Z,1021.1
2023-05-05T06:15:02.219Z,1021.1
2023-05-05T06:16:02.309Z,1021.1
2023-05-05T06:17:02.258Z,1021.2
2023-05-05T06:18:02.396Z,1021.2
2023-05-05T06:19:02.039Z,1021.1
2023-05-05T06:20:02.133Z,1021.1
2023-05-05T06:21:01.950Z,1021.1
2023-05-05T06:22:02.010Z,1021.1
2023-05-05T06:23:01.870Z,1021.1
2023-05-05T06:24:01.880Z,1021.1
2023-05-05T06:25:01.753Z,1021.2
2023-05-05T06:26:01.790Z,1021.2
2023-05-05T06:27:01.647Z,1021.2
2023-05-05T06:28:01.700Z,1021.2
2023-05-05T06:29:02.661Z,1021.2
2023-05-05T06:30:02.529Z,1021.1
2023-05-05T06:31:02.698Z,1021.1
2023-05-05T06:33:02.873Z,1021.1
2023-05-05T06:34:02.563Z,1021.1
2023-05-05T06:35:02.684Z,1021.1
2023-05-05T06:36:02.513Z,1021.2
2023-05-05T06:37:02.592Z,1021.2
2023-05-05T06:38:02.461Z,1021.2
2023-05-05T06:39:02.517Z,1021.2
2023-05-05T06:40:02.400Z,1021.2
2023-05-05T06:41:02.451Z,1021.2
2023-05-05T06:42:02.496Z,1021.2
2023-05-05T06:43:02.278Z,1021.2
2023-05-05T06:44:02.450Z,1021.1
2023-05-05T06:45:02.354Z,1021.2
2023-05-05T06:46:02.113Z,1021.1
2023-05-05T06:47:02.310Z,1021.1
2023-05-05T06:48:02.443Z,1021.1
2023-05-05T06:49:02.206Z,1021.1
2023-05-05T06:50:02.087Z,1021.1
2023-05-05T06:51:03.347Z,1021.1
2023-05-05T06:52:01.973Z,1021.1
2023-05-05T06:53:02.059Z,1021
2023-05-05T06:54:01.895Z,1021.1
2023-05-05T06:55:01.914Z,1021.1
2023-05-05T06:56:01.687Z,1021.1
2023-05-05T06:57:01.670Z,1021.2
2023-05-05T06:58:02.678Z,1021.1
2023-05-05T06:59:02.522Z,1021.1
2023-05-05T07:00:03.204Z,1021.1
2023-05-05T07:01:02.206Z,1021.1
2023-05-05T07:02:02.553Z,1021.1
2023-05-05T07:03:02.772Z,1021.1
2023-05-05T07:04:02.742Z,1021.1
2023-05-05T07:05:02.620Z,1021.1
2023-05-05T07:06:02.410Z,1021
2023-05-05T07:07:02.544Z,1021.1
2023-05-05T07:08:02.426Z,1021
2023-05-05T07:09:02.458Z,1021.1
2023-05-05T07:10:02.394Z,1021.1
2023-05-05T07:11:02.273Z,1021.1
2023-05-05T07:12:02.389Z,1021.1
2023-05-05T07:13:02.544Z,1021.1
2023-05-05T07:14:02.213Z,1021.1
2023-05-05T07:15:29.060Z,1021.1
2023-05-05T07:16:02.296Z,1021.1
2023-05-05T07:17:02.214Z,1021.1
2023-05-05T07:18:02.500Z,1021.1
2023-05-05T07:19:02.274Z,1021.1
2023-05-05T07:20:02.143Z,1021.1
2023-05-05T07:21:02.213Z,1021.1
2023-05-05T07:22:02.038Z,1021.1
2023-05-05T07:23:02.139Z,1021.1
2023-05-05T07:24:01.988Z,1021.1
2023-05-05T07:25:02.047Z,1021.1
2023-05-05T07:26:01.841Z,1021.1
2023-05-05T07:27:01.880Z,1021
2023-05-05T07:28:01.730Z,1021.1
2023-05-05T07:29:01.794Z,1021.1
2023-05-05T07:30:02.085Z,1021
2023-05-05T07:31:02.076Z,1021.1
2023-05-05T07:32:02.602Z,1021
2023-05-05T07:33:02.505Z,1021.1
2023-05-05T07:34:02.405Z,1021
2023-05-05T07:35:02.353Z,1021
2023-05-05T07:36:02.284Z,1021.1
2023-05-05T07:37:02.238Z,1021.1
2023-05-05T07:38:02.255Z,1021
2023-05-05T07:39:02.066Z,1020.9
2023-05-05T07:40:02.119Z,1021
2023-05-05T07:41:02.251Z,1021
2023-05-05T07:42:02.024Z,1021.1
2023-05-05T07:43:02.042Z,1021
2023-05-05T07:44:01.915Z,1021.1
2023-05-05T07:45:01.978Z,1021
2023-05-05T07:46:01.919Z,1021
2023-05-05T07:47:01.997Z,1021
2023-05-05T07:48:02.214Z,1021
2023-05-05T07:49:01.951Z,1021
2023-05-05T07:50:02.394Z,1021
2023-05-05T07:51:02.062Z,1021.1
2023-05-05T07:52:02.138Z,1021
2023-05-05T07:53:15.475Z,1021
2023-05-05T07:54:02.223Z,1021
2023-05-05T07:55:02.245Z,1021
2023-05-05T07:56:02.090Z,1021
2023-05-05T07:57:02.125Z,1021
2023-05-05T07:58:01.979Z,1021
2023-05-05T07:59:02.028Z,1020.9
2023-05-05T08:00:01.999Z,1021
2023-05-05T08:01:02.083Z,1021
2023-05-05T08:02:01.800Z,1021
2023-05-05T08:03:02.289Z,1021
2023-05-05T08:04:02.558Z,1021
2023-05-05T08:05:02.266Z,1021
2023-05-05T08:06:02.394Z,1021
2023-05-05T08:07:02.225Z,1021
2023-05-05T08:08:02.094Z,1021
2023-05-05T08:09:02.264Z,1020.9
2023-05-05T08:10:01.972Z,1021
2023-05-05T08:11:02.046Z,1021
2023-05-05T08:12:01.945Z,1021
2023-05-05T08:13:02.080Z,1021
2023-05-05T08:14:01.829Z,1020.9
2023-05-05T08:15:01.808Z,1020.9
2023-05-05T08:16:01.816Z,1021
2023-05-05T08:17:01.943Z,1021
2023-05-05T08:18:02.146Z,1021
2023-05-05T08:19:01.871Z,1021
2023-05-05T08:20:01.867Z,1021.1
2023-05-05T08:21:01.794Z,1020.9
2023-05-05T08:22:02.157Z,1021
2023-05-05T08:23:01.813Z,1020.9
2023-05-05T08:24:01.828Z,1020.9
2023-05-05T08:25:01.694Z,1020.9
2023-05-05T08:26:01.677Z,1021
2023-05-05T08:27:02.677Z,1020.9
2023-05-05T08:28:02.562Z,1021
2023-05-05T08:29:02.587Z,1021
2023-05-05T08:30:02.464Z,1020.9
2023-05-05T08:31:02.687Z,1020.9
2023-05-05T08:33:02.231Z,1020.9
2023-05-05T08:34:01.922Z,1020.9
2023-05-05T08:35:01.996Z,1020.9
2023-05-05T08:36:01.821Z,1020.9
2023-05-05T08:37:01.875Z,1020.9
2023-05-05T08:38:01.681Z,1020.9
2023-05-05T08:39:01.685Z,1020.9
2023-05-05T08:40:02.653Z,1020.9
2023-05-05T08:41:02.528Z,1020.9
2023-05-05T08:42:02.630Z,1020.9
2023-05-05T08:43:02.477Z,1020.9
2023-05-05T08:44:03.159Z,1020.9
2023-05-05T08:45:02.347Z,1020.8
2023-05-05T08:46:02.354Z,1020.8
2023-05-05T08:47:02.757Z,1020.8
2023-05-05T08:48:02.720Z,1020.8
2023-05-05T08:49:02.452Z,1020.9
2023-05-05T08:50:02.500Z,1020.8
2023-05-05T08:51:06.024Z,1020.8
2023-05-05T08:52:01.648Z,1020.8
2023-05-05T08:53:02.057Z,1020.8
2023-05-05T08:54:01.705Z,1020.8
2023-05-05T08:55:01.917Z,1020.8
2023-05-05T08:56:01.871Z,1020.8
2023-05-05T08:57:01.848Z,1020.7
2023-05-05T08:58:01.713Z,1020.7
2023-05-05T08:59:01.721Z,1020.7
2023-05-05T09:00:02.642Z,1020.7
2023-05-05T09:01:02.731Z,1020.8
2023-05-05T09:03:02.471Z,1020.7
2023-05-05T09:04:02.258Z,1020.7
2023-05-05T09:05:02.102Z,1020.7
2023-05-05T09:06:02.136Z,1020.7
2023-05-05T09:07:01.981Z,1020.7
2023-05-05T09:08:02.018Z,1020.7
2023-05-05T09:09:01.861Z,1020.7
2023-05-05T09:10:01.925Z,1020.7
2023-05-05T09:11:01.748Z,1020.7
2023-05-05T09:12:01.774Z,1020.8
2023-05-05T09:13:01.884Z,1020.7
2023-05-05T09:14:02.693Z,1020.8
2023-05-05T09:15:02.600Z,1020.8
2023-05-05T09:16:02.687Z,1020.8
2023-05-05T09:18:01.866Z,1020.8
2023-05-05T09:19:02.668Z,1020.8
2023-05-05T09:20:02.573Z,1020.8
2023-05-05T09:21:02.627Z,1020.8
2023-05-05T09:22:02.515Z,1020.8
2023-05-05T09:23:02.628Z,1020.7
2023-05-05T09:24:09.837Z,1020.7
2023-05-05T09:25:02.568Z,1020.6
2023-05-05T09:26:02.706Z,1020.7
2023-05-05T09:27:02.519Z,1020.7
2023-05-05T09:28:02.606Z,1020.7
2023-05-05T09:29:02.481Z,1020.7
2023-05-05T09:30:02.558Z,1020.7
2023-05-05T09:31:02.587Z,1020.8
2023-05-05T09:33:02.807Z,1020.7
2023-05-05T09:34:02.579Z,1020.7
2023-05-05T09:35:02.664Z,1020.7
2023-05-05T09:36:02.540Z,1020.8
2023-05-05T09:37:02.592Z,1020.8
2023-05-05T09:38:02.423Z,1020.7
2023-05-05T09:39:02.515Z,1020.7
2023-05-05T09:40:02.399Z,1020.7
2023-05-05T09:41:02.457Z,1020.7
2023-05-05T09:42:02.409Z,1020.7
2023-05-05T09:43:02.305Z,1020.7
2023-05-05T09:44:02.326Z,1020.7
2023-05-05T09:45:02.167Z,1020.7
2023-05-05T09:46:02.586Z,1020.7
2023-05-05T09:47:26.317Z,1020.8
2023-05-05T09:48:02.543Z,1020.8
2023-05-05T09:49:02.405Z,1020.8
2023-05-05T09:50:02.281Z,1020.8
2023-05-05T09:51:02.052Z,1020.7
2023-05-05T09:52:02.096Z,1020.7
2023-05-05T09:53:02.269Z,1020.7
2023-05-05T09:54:01.932Z,1020.7
2023-05-05T09:55:01.987Z,1020.7
2023-05-05T09:56:01.830Z,1020.7
2023-05-05T09:57:01.847Z,1020.7
2023-05-05T09:58:01.791Z,1020.7
2023-05-05T09:59:01.779Z,1020.7
2023-05-05T10:00:02.940Z,1020.7
2023-05-05T10:01:01.665Z,1020.7
2023-05-05T10:02:02.591Z,1020.7
2023-05-05T10:03:02.524Z,1020.7
2023-05-05T10:04:02.356Z,1020.6
2023-05-05T10:05:03.049Z,1020.6
2023-05-05T10:06:01.873Z,1020.6
2023-05-05T10:07:01.689Z,1020.6
2023-05-05T10:08:01.724Z,1020.7
2023-05-05T10:09:01.587Z,1020.6
2023-05-05T10:10:02.697Z,1020.7
2023-05-05T10:11:02.462Z,1020.6
2023-05-05T10:12:02.518Z,1020.6
2023-05-05T10:13:02.578Z,1020.6
2023-05-05T10:14:02.509Z,1020.6
2023-05-05T10:15:02.349Z,1020.6
2023-05-05T10:16:02.497Z,1020.6
2023-05-05T10:18:08.904Z,1020.7
2023-05-05T10:19:02.655Z,1020.7
2023-05-05T10:20:02.571Z,1020.7
2023-05-05T10:21:02.733Z,1020.7
2023-05-05T10:22:02.616Z,1020.7
2023-05-05T10:23:02.712Z,1020.7
2023-05-05T10:24:02.520Z,1020.6
2023-05-05T10:25:02.653Z,1020.6
2023-05-05T10:26:02.384Z,1020.6
2023-05-05T10:27:02.399Z,1020.5
2023-05-05T10:28:02.292Z,1020.5
2023-05-05T10:29:02.406Z,1020.5
2023-05-05T10:30:02.450Z,1020.5
2023-05-05T10:31:20.286Z,1020.5
2023-05-05T10:34:02.821Z,1020.5
2023-05-05T10:35:02.550Z,1020.5
2023-05-05T10:36:02.805Z,1020.4
2023-05-05T10:37:02.495Z,1020.4
2023-05-05T10:38:02.590Z,1020.4
2023-05-05T10:39:02.439Z,1020.4
2023-05-05T10:40:02.580Z,1020.4
2023-05-05T10:41:02.710Z,1020.4
2023-05-05T10:42:02.808Z,1020.4
2023-05-05T10:43:02.510Z,1020.5
2023-05-05T10:44:05.100Z,1020.4
2023-05-05T10:45:01.938Z,1020.4
2023-05-05T10:46:01.894Z,1020.4
2023-05-05T10:47:01.707Z,1020.4
2023-05-05T10:48:02.071Z,1020.4
2023-05-05T10:49:01.847Z,1020.4
2023-05-05T10:50:01.826Z,1020.4
2023-05-05T10:51:01.633Z,1020.3
2023-05-05T10:52:02.644Z,1020.3
2023-05-05T10:53:02.556Z,1020.3
2023-05-05T10:54:02.735Z,1020.4
2023-05-05T10:55:02.697Z,1020.3
2023-05-05T10:56:02.513Z,1020.3
2023-05-05T10:57:02.469Z,1020.4
2023-05-05T10:58:02.473Z,1020.3
2023-05-05T10:59:02.370Z,1020.3
2023-05-05T11:00:02.421Z,1020.3
2023-05-05T11:01:02.611Z,1020.3
2023-05-05T11:02:02.362Z,1020.3
2023-05-05T11:03:02.642Z,1020.3
2023-05-05T11:04:02.697Z,1020.3
2023-05-05T11:05:02.373Z,1020.3
2023-05-05T11:06:02.419Z,1020.3
2023-05-05T11:07:02.313Z,1020.2
2023-05-05T11:08:02.172Z,1020.3
2023-05-05T11:09:02.280Z,1020.3
2023-05-05T11:10:02.464Z,1020.3
2023-05-05T11:11:02.136Z,1020.3
2023-05-05T11:12:02.174Z,1020.3
2023-05-05T11:13:02.358Z,1020.2
2023-05-05T11:14:02.076Z,1020.2
2023-05-05T11:15:02.115Z,1020.2
2023-05-05T11:16:01.970Z,1020.2
2023-05-05T11:17:02.284Z,1020.2
2023-05-05T11:18:08.820Z,1020.3
2023-05-05T11:19:01.586Z,1020.2
2023-05-05T11:20:02.791Z,1020.2
2023-05-05T11:21:02.541Z,1020.2
2023-05-05T11:22:02.648Z,1020.2
2023-05-05T11:23:02.628Z,1020.2
2023-05-05T11:24:02.541Z,1020.2
2023-05-05T11:25:02.382Z,1020.2
2023-05-05T11:26:02.433Z,1020.2
2023-05-05T11:27:02.323Z,1020.3
2023-05-05T11:28:02.168Z,1020.2
2023-05-05T11:29:02.246Z,1020.1
2023-05-05T11:30:02.258Z,1020.2
2023-05-05T11:31:01.975Z,1020.1
2023-05-05T11:32:01.849Z,1020.1
2023-05-05T11:33:01.844Z,1020.1
2023-05-05T11:34:01.742Z,1020.2
2023-05-05T11:35:02.713Z,1020.1
2023-05-05T11:36:07.587Z,1020.1
2023-05-05T11:37:02.281Z,1020.1
2023-05-05T11:38:02.305Z,1020.1
2023-05-05T11:39:02.297Z,1020
2023-05-05T11:40:02.155Z,1020.1
2023-05-05T11:41:02.220Z,1020.1
2023-05-05T11:42:11.199Z,1020.1
2023-05-05T11:43:01.825Z,1020.1
2023-05-05T11:44:01.799Z,1020.1
2023-05-05T11:45:01.681Z,1020.1
2023-05-05T11:46:01.697Z,1020
2023-05-05T11:47:02.746Z,1020.1
2023-05-05T11:48:02.662Z,1020.1
2023-05-05T11:49:02.654Z,1020
2023-05-05T11:50:02.540Z,1020
2023-05-05T11:51:02.662Z,1020
2023-05-05T11:52:02.591Z,1020
2023-05-05T11:53:02.617Z,1020
2023-05-05T11:54:02.606Z,1020.1
2023-05-05T11:55:02.675Z,1020
2023-05-05T11:56:02.480Z,1020.1
2023-05-05T11:57:02.536Z,1020.1
2023-05-05T11:58:02.419Z,1020
2023-05-05T11:59:02.478Z,1020.1
2023-05-05T12:00:02.440Z,1020
2023-05-05T12:01:02.272Z,1020.1
2023-05-05T12:02:02.256Z,1020
2023-05-05T12:03:02.715Z,1020
2023-05-05T12:04:03.013Z,1019.9
2023-05-05T12:05:01.999Z,1020
2023-05-05T12:06:01.701Z,1019.9
2023-05-05T12:07:01.751Z,1019.9
2023-05-05T12:08:01.689Z,1019.9
2023-05-05T12:09:02.685Z,1019.9
2023-05-05T12:10:02.647Z,1020
2023-05-05T12:11:01.787Z,1020
2023-05-05T12:12:01.815Z,1019.9
2023-05-05T12:13:02.786Z,1019.9
2023-05-05T12:14:02.582Z,1019.9
2023-05-05T12:15:02.751Z,1020
2023-05-05T12:16:02.701Z,1019.9
2023-05-05T12:17:02.587Z,1019.9
2023-05-05T12:18:04.083Z,1019.9
2023-05-05T12:19:01.697Z,1020
2023-05-05T12:20:01.800Z,1020
2023-05-05T12:21:01.687Z,1019.9
2023-05-05T12:22:02.736Z,1020
2023-05-05T12:23:02.572Z,1019.9
2023-05-05T12:24:02.606Z,1019.9
2023-05-05T12:25:02.477Z,1019.9
2023-05-05T12:26:02.558Z,1019.8
2023-05-05T12:27:02.448Z,1019.8
2023-05-05T12:28:02.549Z,1019.8
2023-05-05T12:29:02.552Z,1019.8
2023-05-05T12:30:02.455Z,1019.8
2023-05-05T12:31:02.608Z,1019.8
2023-05-05T12:32:02.773Z,1019.8
2023-05-05T12:33:02.576Z,1019.8
2023-05-05T12:34:02.511Z,1019.8
2023-05-05T12:35:02.422Z,1019.8
2023-05-05T12:36:02.434Z,1019.8
2023-05-05T12:37:02.372Z,1019.8
2023-05-05T12:38:02.421Z,1019.9
2023-05-05T12:39:02.373Z,1019.8
2023-05-05T12:40:02.219Z,1019.8
2023-05-05T12:41:02.284Z,1019.8
2023-05-05T12:42:02.091Z,1019.8
2023-05-05T12:43:02.161Z,1019.8
2023-05-05T12:44:01.985Z,1019.9
2023-05-05T12:45:02.044Z,1019.9
2023-05-05T12:46:02.140Z,1019.8
2023-05-05T12:47:01.913Z,1019.9
2023-05-05T12:48:02.067Z,1019.8
2023-05-05T12:49:01.886Z,1019.8
2023-05-05T12:50:01.734Z,1019.8